Robbinsville, NC

5:52 AM EDT on September 19, 2014 (GMT -0400)
Tail of the Dragon at Deals Gap | Change Station
CLOSE
Current Station
Personal Weather Station
Location: Robbinsville, NC
Elevation: 1759 ft
Nearby Weather Stations

Elev 1759 ft 35.47 °N, 83.92 °W | Updated 10 minutes ago

Clear
Clear
60.2 °F
Feels Like 60.2 °F
N
0.0
Wind Variable Wind from ENE
Gusts 3.0 mph

Today
High -- | Low -- °F
--% Chance of Precip.
Yesterday
High -- | Low -- °F
Precip. -- in
7:21 AM 7:36 PM
Waning Crescent, 20% visible
Pressure 30.08 in
Visibility 10.0 miles
Clouds Clear
Dew Point 60 °F
Humidity 98%
Rainfall 0.00 in
Snow Depth Not available.
UV 0 out of 12
Pollen 6.90 out of 12
Air Quality Not available.
Flu Activity Not available.
METAR KRHP 190935Z AUTO 00000KT 10SM CLR 13/13 A3008 RMK AO2 T01280128

More Conditions Fewer Conditions

Pressure 30.08 in
Visibility 10.0 miles
Clouds Clear
Dew Point 60 °F
Humidity 98%
Rainfall 0.00 in
Snow Depth Not available.
UV 0 out of 12
Pollen 6.90 out of 12
Air Quality Not available.
Flu Activity Not available.
METAR KRHP 190935Z AUTO 00000KT 10SM CLR 13/13 A3008 RMK AO2 T01280128

More Conditions Fewer Conditions

10-Day Weather Forecast

Almanac

Astronomy

Sep. 19, 2014 Rise Set
Actual Time 7:21 AM EDT 7:36 PM EDT
Civil Twilight 6:55 AM EDT 8:02 PM EDT
Nautical Twilight 6:26 AM EDT 8:31 PM EDT
Astronomical Twilight 5:55 AM EDT 9:01 PM EDT
Moon 3:12 AM EDT 4:58 PM EDT
Length of Visible Light 13h 06m
Length of Day
12h 15m
Tomorrow will be 2m 12s shorter.
Waning Crescent, 20% of the Moon is Illuminated
Today
Waning Crescent
Sep 24
New
Oct 1
First Quarter
Oct 8
Full
Oct 15
Last Quarter

Today's Extremes

State Highs State Lows

Community

WunderPhotos

Upload Photos

1,754,583 photos uploaded!

Nearby

Snow Depth

Station Depth Elevation
No new snow has been reported.

Earthquake Activity

City Distance Mag. Time & Date
No recent earthquake activity has been reported nearby.
Minimum magnitude displayed is 2.5.

Coastal Water Temperatures

Place Temperature
No Stations Reporting

Nearby Weather Stations